sensor_id;sensor_type;location;lat;lon;timestamp;P1;durP1;ratioP1;P2;durP2;ratioP2
77978;SDS011;67169;50.268;8.694;2023-10-31T00:00:53;3.90;;;1.85;;
77978;SDS011;67169;50.268;8.694;2023-10-31T00:03:20;1.80;;;1.33;;
77978;SDS011;67169;50.268;8.694;2023-10-31T00:05:46;1.83;;;1.25;;
77978;SDS011;67169;50.268;8.694;2023-10-31T00:08:13;1.20;;;1.05;;
77978;SDS011;67169;50.268;8.694;2023-10-31T00:10:39;1.73;;;1.00;;
77978;SDS011;67169;50.268;8.694;2023-10-31T00:13:09;1.38;;;1.00;;
77978;SDS011;67169;50.268;8.694;2023-10-31T00:15:36;1.10;;;0.90;;
77978;SDS011;67169;50.268;8.694;2023-10-31T00:18:04;1.25;;;0.80;;
77978;SDS011;67169;50.268;8.694;2023-10-31T00:20:30;0.98;;;0.85;;
77978;SDS011;67169;50.268;8.694;2023-10-31T00:22:57;2.20;;;1.30;;
77978;SDS011;67169;50.268;8.694;2023-10-31T00:25:23;1.50;;;1.10;;
77978;SDS011;67169;50.268;8.694;2023-10-31T00:27:50;1.20;;;1.10;;
77978;SDS011;67169;50.268;8.694;2023-10-31T00:30:16;1.35;;;0.90;;
77978;SDS011;67169;50.268;8.694;2023-10-31T00:32:43;0.90;;;0.90;;
77978;SDS011;67169;50.268;8.694;2023-10-31T00:35:11;3.13;;;1.00;;
77978;SDS011;67169;50.268;8.694;2023-10-31T00:37:38;1.50;;;0.95;;
77978;SDS011;67169;50.268;8.694;2023-10-31T00:40:06;1.30;;;1.00;;
77978;SDS011;67169;50.268;8.694;2023-10-31T00:42:36;1.35;;;0.93;;
77978;SDS011;67169;50.268;8.694;2023-10-31T00:45:03;1.13;;;0.77;;
77978;SDS011;67169;50.268;8.694;2023-10-31T00:47:30;2.00;;;0.63;;
77978;SDS011;67169;50.268;8.694;2023-10-31T00:49:56;1.17;;;0.77;;
77978;SDS011;67169;50.268;8.694;2023-10-31T00:52:24;0.40;;;0.40;;
77978;SDS011;67169;50.268;8.694;2023-10-31T00:54:51;0.68;;;0.60;;
77978;SDS011;67169;50.268;8.694;2023-10-31T00:57:17;0.40;;;0.40;;
77978;SDS011;67169;50.268;8.694;2023-10-31T00:59:44;0.55;;;0.50;;
77978;SDS011;67169;50.268;8.694;2023-10-31T01:02:10;0.95;;;0.95;;
77978;SDS011;67169;50.268;8.694;2023-10-31T01:04:37;0.77;;;0.50;;
77978;SDS011;67169;50.268;8.694;2023-10-31T01:07:04;0.93;;;0.40;;
77978;SDS011;67169;50.268;8.694;2023-10-31T01:09:32;0.50;;;0.40;;
77978;SDS011;67169;50.268;8.694;2023-10-31T01:11:58;0.70;;;0.40;;
77978;SDS011;67169;50.268;8.694;2023-10-31T01:14:25;0.47;;;0.43;;
77978;SDS011;67169;50.268;8.694;2023-10-31T01:16:51;1.25;;;0.55;;
77978;SDS011;67169;50.268;8.694;2023-10-31T01:19:18;1.38;;;0.57;;
77978;SDS011;67169;50.268;8.694;2023-10-31T01:21:44;0.25;;;0.25;;
77978;SDS011;67169;50.268;8.694;2023-10-31T01:24:11;0.90;;;0.90;;
77978;SDS011;67169;50.268;8.694;2023-10-31T01:26:39;1.42;;;0.80;;
77978;SDS011;67169;50.268;8.694;2023-10-31T01:29:05;0.35;;;0.30;;
77978;SDS011;67169;50.268;8.694;2023-10-31T01:31:32;1.13;;;0.47;;
77978;SDS011;67169;50.268;8.694;2023-10-31T01:34:01;0.80;;;0.43;;
77978;SDS011;67169;50.268;8.694;2023-10-31T01:36:28;0.52;;;0.38;;
77978;SDS011;67169;50.268;8.694;2023-10-31T01:38:55;0.40;;;0.40;;
77978;SDS011;67169;50.268;8.694;2023-10-31T01:41:21;0.57;;;0.40;;
77978;SDS011;67169;50.268;8.694;2023-10-31T01:43:49;0.30;;;0.30;;
77978;SDS011;67169;50.268;8.694;2023-10-31T01:46:16;1.15;;;0.35;;
77978;SDS011;67169;50.268;8.694;2023-10-31T01:48:42;0.47;;;0.47;;
77978;SDS011;67169;50.268;8.694;2023-10-31T01:51:09;0.20;;;0.20;;
77978;SDS011;67169;50.268;8.694;2023-10-31T01:53:36;0.20;;;0.20;;
77978;SDS011;67169;50.268;8.694;2023-10-31T01:56:03;0.70;;;0.40;;
77978;SDS011;67169;50.268;8.694;2023-10-31T01:58:32;0.60;;;0.50;;
77978;SDS011;67169;50.268;8.694;2023-10-31T02:01:02;0.47;;;0.47;;
77978;SDS011;67169;50.268;8.694;2023-10-31T02:03:30;0.15;;;0.15;;
77978;SDS011;67169;50.268;8.694;2023-10-31T02:05:58;0.30;;;0.30;;
77978;SDS011;67169;50.268;8.694;2023-10-31T02:08:25;0.40;;;0.30;;
77978;SDS011;67169;50.268;8.694;2023-10-31T02:10:52;0.70;;;0.35;;
77978;SDS011;67169;50.268;8.694;2023-10-31T02:13:18;0.22;;;0.22;;
77978;SDS011;67169;50.268;8.694;2023-10-31T02:15:45;0.60;;;0.60;;
77978;SDS011;67169;50.268;8.694;2023-10-31T02:18:13;0.38;;;0.38;;
77978;SDS011;67169;50.268;8.694;2023-10-31T02:20:40;0.43;;;0.40;;
77978;SDS011;67169;50.268;8.694;2023-10-31T02:23:09;0.30;;;0.30;;
77978;SDS011;67169;50.268;8.694;2023-10-31T02:25:35;0.55;;;0.38;;
77978;SDS011;67169;50.268;8.694;2023-10-31T02:28:02;0.50;;;0.43;;
77978;SDS011;67169;50.268;8.694;2023-10-31T02:30:28;0.22;;;0.22;;
77978;SDS011;67169;50.268;8.694;2023-10-31T02:32:55;0.77;;;0.30;;
77978;SDS011;67169;50.268;8.694;2023-10-31T02:35:21;0.40;;;0.40;;
77978;SDS011;67169;50.268;8.694;2023-10-31T02:37:48;0.30;;;0.30;;
77978;SDS011;67169;50.268;8.694;2023-10-31T02:40:16;0.40;;;0.40;;
77978;SDS011;67169;50.268;8.694;2023-10-31T02:42:43;3.33;;;0.40;;
77978;SDS011;67169;50.268;8.694;2023-10-31T02:45:10;1.90;;;0.38;;
77978;SDS011;67169;50.268;8.694;2023-10-31T02:47:37;0.17;;;0.15;;
77978;SDS011;67169;50.268;8.694;2023-10-31T02:50:04;1.08;;;0.47;;
77978;SDS011;67169;50.268;8.694;2023-10-31T02:52:31;0.35;;;0.10;;
77978;SDS011;67169;50.268;8.694;2023-10-31T02:54:58;0.75;;;0.30;;
77978;SDS011;67169;50.268;8.694;2023-10-31T02:57:26;0.20;;;0.20;;
77978;SDS011;67169;50.268;8.694;2023-10-31T02:59:52;0.30;;;0.20;;
77978;SDS011;67169;50.268;8.694;2023-10-31T03:02:19;0.90;;;0.20;;
77978;SDS011;67169;50.268;8.694;2023-10-31T03:04:45;0.35;;;0.22;;
77978;SDS011;67169;50.268;8.694;2023-10-31T03:07:12;0.17;;;0.17;;
77978;SDS011;67169;50.268;8.694;2023-10-31T03:09:38;0.50;;;0.45;;
77978;SDS011;67169;50.268;8.694;2023-10-31T03:12:05;1.65;;;0.25;;
77978;SDS011;67169;50.268;8.694;2023-10-31T03:14:34;0.20;;;0.20;;
77978;SDS011;67169;50.268;8.694;2023-10-31T03:19:27;0.45;;;0.10;;
77978;SDS011;67169;50.268;8.694;2023-10-31T03:21:53;0.45;;;0.30;;
77978;SDS011;67169;50.268;8.694;2023-10-31T03:24:20;0.20;;;0.20;;
77978;SDS011;67169;50.268;8.694;2023-10-31T03:26:46;0.32;;;0.28;;
77978;SDS011;67169;50.268;8.694;2023-10-31T03:29:13;0.20;;;0.20;;
77978;SDS011;67169;50.268;8.694;2023-10-31T03:31:41;0.43;;;0.30;;
77978;SDS011;67169;50.268;8.694;2023-10-31T03:36:34;0.75;;;0.60;;
77978;SDS011;67169;50.268;8.694;2023-10-31T03:39:01;0.77;;;0.40;;
77978;SDS011;67169;50.268;8.694;2023-10-31T03:41:28;2.42;;;0.40;;
77978;SDS011;67169;50.268;8.694;2023-10-31T03:43:54;0.20;;;0.20;;
77978;SDS011;67169;50.268;8.694;2023-10-31T03:46:21;0.30;;;0.30;;
77978;SDS011;67169;50.268;8.694;2023-10-31T03:48:49;0.30;;;0.30;;
77978;SDS011;67169;50.268;8.694;2023-10-31T03:51:14;0.45;;;0.40;;
77978;SDS011;67169;50.268;8.694;2023-10-31T03:53:41;0.50;;;0.30;;
77978;SDS011;67169;50.268;8.694;2023-10-31T03:56:07;0.40;;;0.40;;
77978;SDS011;67169;50.268;8.694;2023-10-31T03:58:34;3.55;;;0.70;;
77978;SDS011;67169;50.268;8.694;2023-10-31T04:01:00;1.20;;;0.70;;
77978;SDS011;67169;50.268;8.694;2023-10-31T04:03:27;0.65;;;0.47;;
77978;SDS011;67169;50.268;8.694;2023-10-31T04:05:55;0.60;;;0.57;;
77978;SDS011;67169;50.268;8.694;2023-10-31T04:10:48;1.85;;;0.50;;
77978;SDS011;67169;50.268;8.694;2023-10-31T04:13:15;0.57;;;0.57;;
77978;SDS011;67169;50.268;8.694;2023-10-31T04:15:41;0.57;;;0.57;;
77978;SDS011;67169;50.268;8.694;2023-10-31T04:18:08;0.52;;;0.40;;
77978;SDS011;67169;50.268;8.694;2023-10-31T04:20:34;0.40;;;0.40;;
77978;SDS011;67169;50.268;8.694;2023-10-31T04:23:02;4.43;;;0.70;;
77978;SDS011;67169;50.268;8.694;2023-10-31T04:25:30;0.73;;;0.55;;
77978;SDS011;67169;50.268;8.694;2023-10-31T04:27:57;0.35;;;0.32;;
77978;SDS011;67169;50.268;8.694;2023-10-31T04:30:24;0.50;;;0.50;;
77978;SDS011;67169;50.268;8.694;2023-10-31T04:32:51;0.50;;;0.50;;
77978;SDS011;67169;50.268;8.694;2023-10-31T04:35:18;0.77;;;0.70;;
77978;SDS011;67169;50.268;8.694;2023-10-31T04:37:44;0.63;;;0.50;;
77978;SDS011;67169;50.268;8.694;2023-10-31T04:40:13;1.08;;;0.60;;
77978;SDS011;67169;50.268;8.694;2023-10-31T04:42:39;0.52;;;0.52;;
77978;SDS011;67169;50.268;8.694;2023-10-31T04:45:06;1.02;;;0.47;;
77978;SDS011;67169;50.268;8.694;2023-10-31T04:50:00;0.63;;;0.63;;
77978;SDS011;67169;50.268;8.694;2023-10-31T04:52:27;1.20;;;0.70;;
77978;SDS011;67169;50.268;8.694;2023-10-31T04:54:53;2.40;;;0.77;;
77978;SDS011;67169;50.268;8.694;2023-10-31T04:57:21;1.77;;;0.90;;
77978;SDS011;67169;50.268;8.694;2023-10-31T05:04:40;0.77;;;0.55;;
77978;SDS011;67169;50.268;8.694;2023-10-31T05:07:07;2.63;;;0.77;;
77978;SDS011;67169;50.268;8.694;2023-10-31T05:09:34;1.17;;;0.95;;
77978;SDS011;67169;50.268;8.694;2023-10-31T05:12:00;1.10;;;1.00;;
77978;SDS011;67169;50.268;8.694;2023-10-31T05:14:28;3.70;;;0.85;;
77978;SDS011;67169;50.268;8.694;2023-10-31T05:26:40;2.10;;;1.02;;
77978;SDS011;67169;50.268;8.694;2023-10-31T05:29:08;0.73;;;0.65;;
77978;SDS011;67169;50.268;8.694;2023-10-31T05:31:36;1.70;;;1.05;;
77978;SDS011;67169;50.268;8.694;2023-10-31T05:36:29;1.67;;;1.35;;
77978;SDS011;67169;50.268;8.694;2023-10-31T05:38:56;1.33;;;1.10;;
77978;SDS011;67169;50.268;8.694;2023-10-31T05:41:23;1.27;;;0.88;;
77978;SDS011;67169;50.268;8.694;2023-10-31T05:43:50;1.20;;;1.00;;
77978;SDS011;67169;50.268;8.694;2023-10-31T05:46:17;0.82;;;0.80;;
77978;SDS011;67169;50.268;8.694;2023-10-31T05:48:45;1.23;;;1.10;;
77978;SDS011;67169;50.268;8.694;2023-10-31T05:51:14;1.25;;;0.90;;
77978;SDS011;67169;50.268;8.694;2023-10-31T05:53:42;1.40;;;1.20;;
77978;SDS011;67169;50.268;8.694;2023-10-31T05:56:11;1.20;;;0.70;;
77978;SDS011;67169;50.268;8.694;2023-10-31T05:58:38;1.10;;;0.80;;
77978;SDS011;67169;50.268;8.694;2023-10-31T06:01:05;0.70;;;0.70;;
77978;SDS011;67169;50.268;8.694;2023-10-31T06:03:32;1.60;;;0.85;;
77978;SDS011;67169;50.268;8.694;2023-10-31T06:06:01;1.10;;;0.63;;
77978;SDS011;67169;50.268;8.694;2023-10-31T06:10:54;0.80;;;0.80;;
77978;SDS011;67169;50.268;8.694;2023-10-31T06:13:21;1.02;;;0.70;;
77978;SDS011;67169;50.268;8.694;2023-10-31T06:15:47;0.47;;;0.40;;
77978;SDS011;67169;50.268;8.694;2023-10-31T06:18:14;0.75;;;0.70;;
77978;SDS011;67169;50.268;8.694;2023-10-31T06:20:40;0.40;;;0.40;;
77978;SDS011;67169;50.268;8.694;2023-10-31T06:23:08;3.10;;;0.63;;
77978;SDS011;67169;50.268;8.694;2023-10-31T06:28:01;1.25;;;0.60;;
77978;SDS011;67169;50.268;8.694;2023-10-31T06:30:28;0.80;;;0.63;;
77978;SDS011;67169;50.268;8.694;2023-10-31T06:32:55;0.70;;;0.70;;
77978;SDS011;67169;50.268;8.694;2023-10-31T06:35:22;0.52;;;0.52;;
77978;SDS011;67169;50.268;8.694;2023-10-31T06:37:49;1.50;;;0.60;;
77978;SDS011;67169;50.268;8.694;2023-10-31T06:40:17;0.77;;;0.60;;
77978;SDS011;67169;50.268;8.694;2023-10-31T06:42:44;0.98;;;0.70;;
77978;SDS011;67169;50.268;8.694;2023-10-31T06:45:10;1.23;;;0.70;;
77978;SDS011;67169;50.268;8.694;2023-10-31T06:47:37;0.55;;;0.40;;
77978;SDS011;67169;50.268;8.694;2023-10-31T06:50:04;5.07;;;0.70;;
77978;SDS011;67169;50.268;8.694;2023-10-31T06:52:31;0.73;;;0.40;;
77978;SDS011;67169;50.268;8.694;2023-10-31T06:54:58;0.77;;;0.70;;
77978;SDS011;67169;50.268;8.694;2023-10-31T06:57:26;1.02;;;0.70;;
77978;SDS011;67169;50.268;8.694;2023-10-31T07:02:19;0.90;;;0.68;;
77978;SDS011;67169;50.268;8.694;2023-10-31T07:04:45;1.15;;;0.80;;
77978;SDS011;67169;50.268;8.694;2023-10-31T07:07:12;0.95;;;0.77;;
77978;SDS011;67169;50.268;8.694;2023-10-31T07:09:38;1.67;;;0.68;;
77978;SDS011;67169;50.268;8.694;2023-10-31T07:12:05;2.10;;;0.65;;
77978;SDS011;67169;50.268;8.694;2023-10-31T07:14:33;0.50;;;0.40;;
77978;SDS011;67169;50.268;8.694;2023-10-31T07:19:26;1.23;;;0.45;;
77978;SDS011;67169;50.268;8.694;2023-10-31T07:21:53;0.85;;;0.70;;
77978;SDS011;67169;50.268;8.694;2023-10-31T07:24:19;0.65;;;0.65;;
77978;SDS011;67169;50.268;8.694;2023-10-31T07:26:46;0.90;;;0.43;;
77978;SDS011;67169;50.268;8.694;2023-10-31T07:29:12;0.93;;;0.75;;
77978;SDS011;67169;50.268;8.694;2023-10-31T07:31:40;0.60;;;0.40;;
77978;SDS011;67169;50.268;8.694;2023-10-31T07:34:07;0.40;;;0.40;;
77978;SDS011;67169;50.268;8.694;2023-10-31T07:36:36;0.82;;;0.50;;
77978;SDS011;67169;50.268;8.694;2023-10-31T07:39:02;1.65;;;0.60;;
77978;SDS011;67169;50.268;8.694;2023-10-31T07:41:30;0.73;;;0.57;;
77978;SDS011;67169;50.268;8.694;2023-10-31T07:43:56;2.25;;;0.55;;
77978;SDS011;67169;50.268;8.694;2023-10-31T07:46:23;2.85;;;0.40;;
77978;SDS011;67169;50.268;8.694;2023-10-31T07:48:51;0.43;;;0.43;;
77978;SDS011;67169;50.268;8.694;2023-10-31T07:53:44;0.35;;;0.35;;
77978;SDS011;67169;50.268;8.694;2023-10-31T07:56:14;0.55;;;0.55;;
77978;SDS011;67169;50.268;8.694;2023-10-31T07:58:42;0.40;;;0.40;;
77978;SDS011;67169;50.268;8.694;2023-10-31T08:01:08;0.32;;;0.32;;
77978;SDS011;67169;50.268;8.694;2023-10-31T08:03:35;1.38;;;0.60;;
77978;SDS011;67169;50.268;8.694;2023-10-31T08:06:04;0.80;;;0.50;;
77978;SDS011;67169;50.268;8.694;2023-10-31T08:08:31;2.05;;;0.55;;
77978;SDS011;67169;50.268;8.694;2023-10-31T08:10:58;0.40;;;0.32;;
77978;SDS011;67169;50.268;8.694;2023-10-31T08:13:25;0.52;;;0.52;;
77978;SDS011;67169;50.268;8.694;2023-10-31T08:15:52;1.80;;;0.60;;
77978;SDS011;67169;50.268;8.694;2023-10-31T08:18:19;0.40;;;0.40;;
77978;SDS011;67169;50.268;8.694;2023-10-31T08:20:45;0.75;;;0.63;;
77978;SDS011;67169;50.268;8.694;2023-10-31T08:23:15;1.50;;;0.80;;
77978;SDS011;67169;50.268;8.694;2023-10-31T08:28:08;1.58;;;0.50;;
77978;SDS011;67169;50.268;8.694;2023-10-31T08:30:35;0.43;;;0.40;;
77978;SDS011;67169;50.268;8.694;2023-10-31T08:33:03;0.95;;;0.65;;
77978;SDS011;67169;50.268;8.694;2023-10-31T08:35:29;2.38;;;0.80;;
77978;SDS011;67169;50.268;8.694;2023-10-31T08:37:56;1.00;;;0.70;;
77978;SDS011;67169;50.268;8.694;2023-10-31T08:40:24;1.40;;;0.85;;
77978;SDS011;67169;50.268;8.694;2023-10-31T08:42:51;0.52;;;0.52;;
77978;SDS011;67169;50.268;8.694;2023-10-31T08:45:19;0.82;;;0.80;;
77978;SDS011;67169;50.268;8.694;2023-10-31T08:47:46;0.68;;;0.68;;
77978;SDS011;67169;50.268;8.694;2023-10-31T08:50:13;0.40;;;0.40;;
77978;SDS011;67169;50.268;8.694;2023-10-31T08:52:40;2.35;;;0.90;;
77978;SDS011;67169;50.268;8.694;2023-10-31T08:55:06;0.38;;;0.38;;
77978;SDS011;67169;50.268;8.694;2023-10-31T08:57:35;1.55;;;0.60;;
77978;SDS011;67169;50.268;8.694;2023-10-31T09:02:30;0.55;;;0.52;;
77978;SDS011;67169;50.268;8.694;2023-10-31T09:04:56;0.40;;;0.40;;
77978;SDS011;67169;50.268;8.694;2023-10-31T09:07:23;0.52;;;0.52;;
77978;SDS011;67169;50.268;8.694;2023-10-31T09:09:49;1.23;;;0.50;;
77978;SDS011;67169;50.268;8.694;2023-10-31T09:12:16;0.80;;;0.80;;
77978;SDS011;67169;50.268;8.694;2023-10-31T09:14:44;0.93;;;0.60;;
77978;SDS011;67169;50.268;8.694;2023-10-31T09:17:11;5.57;;;1.02;;
77978;SDS011;67169;50.268;8.694;2023-10-31T09:19:38;0.85;;;0.60;;
77978;SDS011;67169;50.268;8.694;2023-10-31T09:22:04;2.03;;;0.65;;
77978;SDS011;67169;50.268;8.694;2023-10-31T09:24:31;0.50;;;0.50;;
77978;SDS011;67169;50.268;8.694;2023-10-31T09:26:57;1.23;;;0.80;;
77978;SDS011;67169;50.268;8.694;2023-10-31T09:29:24;0.57;;;0.57;;
77978;SDS011;67169;50.268;8.694;2023-10-31T09:31:52;0.88;;;0.57;;
77978;SDS011;67169;50.268;8.694;2023-10-31T09:36:45;2.55;;;0.57;;
77978;SDS011;67169;50.268;8.694;2023-10-31T09:39:11;1.13;;;0.90;;
77978;SDS011;67169;50.268;8.694;2023-10-31T09:41:38;1.35;;;0.50;;
77978;SDS011;67169;50.268;8.694;2023-10-31T09:44:05;1.35;;;0.52;;
77978;SDS011;67169;50.268;8.694;2023-10-31T09:46:32;1.92;;;0.70;;
77978;SDS011;67169;50.268;8.694;2023-10-31T09:49:01;1.55;;;0.50;;
77978;SDS011;67169;50.268;8.694;2023-10-31T09:51:28;0.40;;;0.40;;
77978;SDS011;67169;50.268;8.694;2023-10-31T09:53:56;1.15;;;0.40;;
77978;SDS011;67169;50.268;8.694;2023-10-31T09:56:23;0.70;;;0.50;;
77978;SDS011;67169;50.268;8.694;2023-10-31T09:58:51;0.40;;;0.40;;
77978;SDS011;67169;50.268;8.694;2023-10-31T10:01:18;0.40;;;0.40;;
77978;SDS011;67169;50.268;8.694;2023-10-31T10:03:45;2.05;;;0.50;;
77978;SDS011;67169;50.268;8.694;2023-10-31T10:06:13;0.38;;;0.30;;
77978;SDS011;67169;50.268;8.694;2023-10-31T10:08:40;0.52;;;0.52;;
77978;SDS011;67169;50.268;8.694;2023-10-31T10:11:07;0.60;;;0.40;;
77978;SDS011;67169;50.268;8.694;2023-10-31T10:13:34;0.43;;;0.43;;
77978;SDS011;67169;50.268;8.694;2023-10-31T10:16:01;0.47;;;0.30;;
77978;SDS011;67169;50.268;8.694;2023-10-31T10:18:29;0.40;;;0.40;;
77978;SDS011;67169;50.268;8.694;2023-10-31T10:20:57;1.15;;;0.52;;
77978;SDS011;67169;50.268;8.694;2023-10-31T10:23:26;1.65;;;0.30;;
77978;SDS011;67169;50.268;8.694;2023-10-31T10:25:54;1.48;;;0.40;;
77978;SDS011;67169;50.268;8.694;2023-10-31T10:28:21;0.52;;;0.52;;
77978;SDS011;67169;50.268;8.694;2023-10-31T10:30:50;0.55;;;0.50;;
77978;SDS011;67169;50.268;8.694;2023-10-31T10:33:17;1.13;;;0.40;;
77978;SDS011;67169;50.268;8.694;2023-10-31T10:35:44;3.00;;;0.50;;
77978;SDS011;67169;50.268;8.694;2023-10-31T10:38:12;0.10;;;0.10;;
77978;SDS011;67169;50.268;8.694;2023-10-31T10:40:42;0.98;;;0.30;;
77978;SDS011;67169;50.268;8.694;2023-10-31T10:43:12;0.88;;;0.30;;
77978;SDS011;67169;50.268;8.694;2023-10-31T10:45:41;0.57;;;0.40;;
77978;SDS011;67169;50.268;8.694;2023-10-31T10:48:10;2.00;;;0.30;;
77978;SDS011;67169;50.268;8.694;2023-10-31T10:50:38;0.57;;;0.30;;
77978;SDS011;67169;50.268;8.694;2023-10-31T10:53:10;0.40;;;0.30;;
77978;SDS011;67169;50.268;8.694;2023-10-31T10:55:45;0.80;;;0.52;;
77978;SDS011;67169;50.268;8.694;2023-10-31T10:58:19;0.28;;;0.20;;
77978;SDS011;67169;50.268;8.694;2023-10-31T11:00:52;0.30;;;0.30;;
77978;SDS011;67169;50.268;8.694;2023-10-31T11:03:21;0.40;;;0.40;;
77978;SDS011;67169;50.268;8.694;2023-10-31T11:05:50;0.63;;;0.28;;
77978;SDS011;67169;50.268;8.694;2023-10-31T11:08:17;0.47;;;0.15;;
77978;SDS011;67169;50.268;8.694;2023-10-31T11:10:47;0.30;;;0.20;;
77978;SDS011;67169;50.268;8.694;2023-10-31T11:13:15;0.22;;;0.17;;
77978;SDS011;67169;50.268;8.694;2023-10-31T11:15:41;0.10;;;0.10;;
77978;SDS011;67169;50.268;8.694;2023-10-31T11:18:09;0.98;;;0.40;;
77978;SDS011;67169;50.268;8.694;2023-10-31T11:20:37;0.17;;;0.17;;
77978;SDS011;67169;50.268;8.694;2023-10-31T11:23:05;0.20;;;0.10;;
77978;SDS011;67169;50.268;8.694;2023-10-31T11:25:31;0.28;;;0.17;;
77978;SDS011;67169;50.268;8.694;2023-10-31T11:28:11;0.17;;;0.17;;
77978;SDS011;67169;50.268;8.694;2023-10-31T11:30:39;0.15;;;0.10;;
77978;SDS011;67169;50.268;8.694;2023-10-31T11:33:07;0.20;;;0.17;;
77978;SDS011;67169;50.268;8.694;2023-10-31T11:35:38;0.30;;;0.30;;
77978;SDS011;67169;50.268;8.694;2023-10-31T11:38:05;0.30;;;0.10;;
77978;SDS011;67169;50.268;8.694;2023-10-31T11:40:33;0.28;;;0.20;;
77978;SDS011;67169;50.268;8.694;2023-10-31T11:43:02;0.15;;;0.10;;
77978;SDS011;67169;50.268;8.694;2023-10-31T11:45:33;0.20;;;0.20;;
77978;SDS011;67169;50.268;8.694;2023-10-31T11:48:01;0.13;;;0.13;;
77978;SDS011;67169;50.268;8.694;2023-10-31T11:50:29;0.20;;;0.10;;
77978;SDS011;67169;50.268;8.694;2023-10-31T11:52:59;0.52;;;0.13;;
77978;SDS011;67169;50.268;8.694;2023-10-31T11:55:27;1.08;;;0.10;;
77978;SDS011;67169;50.268;8.694;2023-10-31T11:57:54;0.85;;;0.17;;
77978;SDS011;67169;50.268;8.694;2023-10-31T12:00:22;0.90;;;0.13;;
77978;SDS011;67169;50.268;8.694;2023-10-31T12:03:00;0.00;;;0.00;;
77978;SDS011;67169;50.268;8.694;2023-10-31T12:05:27;0.20;;;0.10;;
77978;SDS011;67169;50.268;8.694;2023-10-31T12:07:54;0.30;;;0.20;;
77978;SDS011;67169;50.268;8.694;2023-10-31T12:10:22;0.10;;;0.10;;
77978;SDS011;67169;50.268;8.694;2023-10-31T12:12:50;0.10;;;0.10;;
77978;SDS011;67169;50.268;8.694;2023-10-31T12:15:17;0.30;;;0.17;;
77978;SDS011;67169;50.268;8.694;2023-10-31T12:17:43;0.50;;;0.30;;
77978;SDS011;67169;50.268;8.694;2023-10-31T12:20:12;0.10;;;0.10;;
77978;SDS011;67169;50.268;8.694;2023-10-31T12:22:38;0.28;;;0.13;;
77978;SDS011;67169;50.268;8.694;2023-10-31T12:25:06;0.85;;;0.32;;
77978;SDS011;67169;50.268;8.694;2023-10-31T12:27:43;0.10;;;0.10;;
77978;SDS011;67169;50.268;8.694;2023-10-31T12:30:12;0.38;;;0.38;;
77978;SDS011;67169;50.268;8.694;2023-10-31T12:32:39;0.20;;;0.10;;
77978;SDS011;67169;50.268;8.694;2023-10-31T12:35:08;0.20;;;0.10;;
77978;SDS011;67169;50.268;8.694;2023-10-31T12:37:41;0.90;;;0.30;;
77978;SDS011;67169;50.268;8.694;2023-10-31T12:40:11;0.10;;;0.10;;
77978;SDS011;67169;50.268;8.694;2023-10-31T12:42:39;0.13;;;0.13;;
77978;SDS011;67169;50.268;8.694;2023-10-31T12:45:06;0.35;;;0.13;;
77978;SDS011;67169;50.268;8.694;2023-10-31T12:47:33;0.80;;;0.13;;
77978;SDS011;67169;50.268;8.694;2023-10-31T12:50:05;0.88;;;0.17;;
77978;SDS011;67169;50.268;8.694;2023-10-31T12:52:46;0.90;;;0.32;;
77978;SDS011;67169;50.268;8.694;2023-10-31T12:55:13;1.30;;;0.20;;
77978;SDS011;67169;50.268;8.694;2023-10-31T12:57:41;1.60;;;0.30;;
77978;SDS011;67169;50.268;8.694;2023-10-31T13:00:09;2.33;;;0.28;;
77978;SDS011;67169;50.268;8.694;2023-10-31T13:02:38;0.15;;;0.10;;
77978;SDS011;67169;50.268;8.694;2023-10-31T13:05:08;0.90;;;0.22;;
77978;SDS011;67169;50.268;8.694;2023-10-31T13:07:37;0.60;;;0.20;;
77978;SDS011;67169;50.268;8.694;2023-10-31T13:10:05;0.82;;;0.40;;
77978;SDS011;67169;50.268;8.694;2023-10-31T13:12:33;0.63;;;0.25;;
77978;SDS011;67169;50.268;8.694;2023-10-31T13:15:00;0.45;;;0.28;;
77978;SDS011;67169;50.268;8.694;2023-10-31T13:17:27;2.45;;;0.30;;
77978;SDS011;67169;50.268;8.694;2023-10-31T13:19:56;0.25;;;0.22;;
77978;SDS011;67169;50.268;8.694;2023-10-31T13:22:22;0.17;;;0.17;;
77978;SDS011;67169;50.268;8.694;2023-10-31T13:24:49;0.50;;;0.30;;
77978;SDS011;67169;50.268;8.694;2023-10-31T13:27:17;2.67;;;0.52;;
77978;SDS011;67169;50.268;8.694;2023-10-31T13:29:44;0.93;;;0.32;;
77978;SDS011;67169;50.268;8.694;2023-10-31T13:32:14;0.40;;;0.30;;
77978;SDS011;67169;50.268;8.694;2023-10-31T13:34:41;0.82;;;0.22;;
77978;SDS011;67169;50.268;8.694;2023-10-31T13:37:08;0.77;;;0.28;;
77978;SDS011;67169;50.268;8.694;2023-10-31T13:39:34;1.25;;;0.45;;
77978;SDS011;67169;50.268;8.694;2023-10-31T13:42:02;0.40;;;0.30;;
77978;SDS011;67169;50.268;8.694;2023-10-31T13:44:30;1.02;;;0.40;;
77978;SDS011;67169;50.268;8.694;2023-10-31T13:46:58;2.35;;;0.30;;
77978;SDS011;67169;50.268;8.694;2023-10-31T13:49:26;1.77;;;0.15;;
77978;SDS011;67169;50.268;8.694;2023-10-31T13:51:53;0.52;;;0.30;;
77978;SDS011;67169;50.268;8.694;2023-10-31T13:54:19;1.73;;;0.40;;
77978;SDS011;67169;50.268;8.694;2023-10-31T13:56:46;1.95;;;0.60;;
77978;SDS011;67169;50.268;8.694;2023-10-31T13:59:13;0.30;;;0.20;;
77978;SDS011;67169;50.268;8.694;2023-10-31T14:01:41;1.58;;;0.30;;
77978;SDS011;67169;50.268;8.694;2023-10-31T14:04:08;1.17;;;0.40;;
77978;SDS011;67169;50.268;8.694;2023-10-31T14:06:36;4.82;;;0.40;;
77978;SDS011;67169;50.268;8.694;2023-10-31T14:09:03;1.40;;;0.40;;
77978;SDS011;67169;50.268;8.694;2023-10-31T14:11:32;0.50;;;0.32;;
77978;SDS011;67169;50.268;8.694;2023-10-31T14:13:59;5.03;;;0.57;;
77978;SDS011;67169;50.268;8.694;2023-10-31T14:16:31;1.35;;;0.30;;
77978;SDS011;67169;50.268;8.694;2023-10-31T14:18:59;0.22;;;0.20;;
77978;SDS011;67169;50.268;8.694;2023-10-31T14:21:27;2.20;;;0.30;;
77978;SDS011;67169;50.268;8.694;2023-10-31T14:23:53;1.65;;;0.40;;
77978;SDS011;67169;50.268;8.694;2023-10-31T14:26:20;1.27;;;0.30;;
77978;SDS011;67169;50.268;8.694;2023-10-31T14:28:47;0.98;;;0.40;;
77978;SDS011;67169;50.268;8.694;2023-10-31T14:31:14;0.45;;;0.40;;
77978;SDS011;67169;50.268;8.694;2023-10-31T14:33:41;2.67;;;0.55;;
77978;SDS011;67169;50.268;8.694;2023-10-31T14:36:09;0.47;;;0.40;;
77978;SDS011;67169;50.268;8.694;2023-10-31T14:38:37;0.40;;;0.30;;
77978;SDS011;67169;50.268;8.694;2023-10-31T14:41:05;1.27;;;0.85;;
77978;SDS011;67169;50.268;8.694;2023-10-31T14:43:33;0.47;;;0.38;;
77978;SDS011;67169;50.268;8.694;2023-10-31T14:46:00;2.00;;;0.50;;
77978;SDS011;67169;50.268;8.694;2023-10-31T14:48:27;2.83;;;0.40;;
77978;SDS011;67169;50.268;8.694;2023-10-31T14:50:53;0.70;;;0.52;;
77978;SDS011;67169;50.268;8.694;2023-10-31T14:53:23;0.20;;;0.20;;
77978;SDS011;67169;50.268;8.694;2023-10-31T14:55:50;1.52;;;0.30;;
77978;SDS011;67169;50.268;8.694;2023-10-31T14:58:17;0.95;;;0.40;;
77978;SDS011;67169;50.268;8.694;2023-10-31T15:00:43;0.98;;;0.50;;
77978;SDS011;67169;50.268;8.694;2023-10-31T15:03:10;1.10;;;0.40;;
77978;SDS011;67169;50.268;8.694;2023-10-31T15:05:37;0.85;;;0.35;;
77978;SDS011;67169;50.268;8.694;2023-10-31T15:08:04;3.55;;;0.30;;
77978;SDS011;67169;50.268;8.694;2023-10-31T15:10:33;1.08;;;0.40;;
77978;SDS011;67169;50.268;8.694;2023-10-31T15:13:00;1.75;;;0.40;;
77978;SDS011;67169;50.268;8.694;2023-10-31T15:15:27;1.85;;;0.50;;
77978;SDS011;67169;50.268;8.694;2023-10-31T15:17:54;0.98;;;0.45;;
77978;SDS011;67169;50.268;8.694;2023-10-31T15:20:20;0.47;;;0.38;;
77978;SDS011;67169;50.268;8.694;2023-10-31T15:22:47;0.77;;;0.32;;
77978;SDS011;67169;50.268;8.694;2023-10-31T15:25:14;1.75;;;0.60;;
77978;SDS011;67169;50.268;8.694;2023-10-31T15:27:42;0.20;;;0.20;;
77978;SDS011;67169;50.268;8.694;2023-10-31T15:30:09;1.08;;;0.30;;
77978;SDS011;67169;50.268;8.694;2023-10-31T15:32:36;0.68;;;0.30;;
77978;SDS011;67169;50.268;8.694;2023-10-31T15:37:31;1.35;;;0.60;;